createdAt,value
2022-08-01T04:34:02.131Z,17.302856
2022-08-01T04:37:27.494Z,17.373352
2022-08-01T04:40:52.812Z,17.463989
2022-08-01T04:44:18.139Z,17.564697
2022-08-01T04:47:43.480Z,17.625122
2022-08-01T04:51:08.821Z,17.715759
2022-08-01T04:54:35.309Z,17.776184
2022-08-01T04:58:00.704Z,17.85675
2022-08-01T05:01:29.534Z,17.897034
2022-08-01T05:04:54.847Z,17.957458
2022-08-01T05:08:20.460Z,17.957458
2022-08-01T05:11:46.318Z,17.967529
2022-08-01T05:15:15.341Z,17.957458
2022-08-01T05:18:36.997Z,17.957458
2022-08-01T05:22:02.574Z,17.987671
2022-08-01T05:25:54.919Z,17.997742
2022-08-01T05:28:52.969Z,18.017883
2022-08-01T05:32:18.309Z,18.068237
2022-08-01T05:35:47.728Z,18.078308
2022-08-01T05:39:08.962Z,18.108521
2022-08-01T05:42:34.293Z,18.108521
2022-08-01T05:45:59.594Z,18.148804
2022-08-01T05:49:24.947Z,18.179016
2022-08-01T05:52:50.264Z,18.209229
2022-08-01T05:56:15.572Z,18.289795
2022-08-01T05:59:40.885Z,18.35022
2022-08-01T06:03:06.254Z,18.420715
2022-08-01T06:06:31.564Z,18.420715
2022-08-01T06:09:56.945Z,18.450928
2022-08-01T06:13:22.300Z,18.420715
2022-08-01T06:17:01.831Z,18.471069
2022-08-01T06:20:35.353Z,18.511353
2022-08-01T06:24:00.230Z,18.571777
2022-08-01T06:27:25.572Z,18.581848
2022-08-01T06:30:50.923Z,18.652344
2022-08-01T06:34:16.299Z,18.652344
2022-08-01T06:37:41.688Z,18.702698
2022-08-01T06:41:07.013Z,18.662415
2022-08-01T06:44:32.385Z,18.622131
2022-08-01T06:47:57.750Z,18.551636
2022-08-01T06:51:23.140Z,18.521423
2022-08-01T06:54:48.569Z,18.48114
2022-08-01T06:58:13.928Z,18.511353
2022-08-01T07:01:39.367Z,18.551636
2022-08-01T07:05:04.758Z,18.662415
2022-08-01T07:08:30.142Z,18.702698
2022-08-01T07:11:55.489Z,18.803406
2022-08-01T07:15:20.877Z,18.873901
2022-08-01T07:18:46.242Z,18.924255
2022-08-01T07:22:11.603Z,19.125671
2022-08-01T07:25:38.102Z,19.306946
2022-08-01T07:29:03.467Z,19.578857
2022-08-01T07:32:28.805Z,19.629211
2022-08-01T07:35:55.321Z,19.679565
2022-08-01T07:39:21.745Z,19.709778
2022-08-01T07:42:47.150Z,19.810486
2022-08-01T07:46:12.481Z,19.840698
2022-08-01T07:49:40.478Z,19.840698
2022-08-01T07:53:03.165Z,19.921265
2022-08-01T07:56:28.497Z,20.021973
2022-08-01T07:59:53.832Z,20.233459
2022-08-01T08:03:19.181Z,20.36438
2022-08-01T08:06:44.491Z,20.424805
2022-08-01T08:10:09.805Z,20.505371
2022-08-01T08:13:35.160Z,20.575867
2022-08-01T08:17:00.556Z,20.636292
2022-08-01T08:20:25.977Z,20.636292
2022-08-01T08:23:51.320Z,20.545654
2022-08-01T08:27:16.705Z,20.515442
2022-08-01T08:30:42.125Z,20.585938
2022-08-01T08:34:07.518Z,20.636292
2022-08-01T08:37:37.861Z,20.656433
2022-08-01T08:40:58.296Z,20.686646
2022-08-01T08:44:23.630Z,20.656433
2022-08-01T08:47:49.020Z,20.656433
2022-08-01T08:51:14.356Z,20.656433
2022-08-01T08:54:39.721Z,20.585938
2022-08-01T08:58:05.075Z,20.465088
2022-08-01T09:01:30.423Z,20.424805
2022-08-01T09:04:55.770Z,20.414734
2022-08-01T09:08:21.122Z,20.354309
2022-08-01T09:11:46.443Z,20.314026
2022-08-01T09:15:11.820Z,20.233459
2022-08-01T09:18:37.201Z,20.203247
2022-08-01T09:22:02.547Z,20.142822
2022-08-01T09:25:29.543Z,20.183105
2022-08-01T09:28:53.206Z,20.293884
2022-08-01T09:32:18.521Z,20.465088
2022-08-01T09:35:44.273Z,20.686646
2022-08-01T09:39:09.154Z,21.008911
2022-08-01T09:42:34.485Z,21.170044
2022-08-01T09:45:59.827Z,21.170044
2022-08-01T09:49:25.229Z,21.170044
2022-08-01T09:52:50.473Z,21.139832
2022-08-01T09:56:15.815Z,21.129761
2022-08-01T09:59:57.627Z,21.089478
2022-08-01T10:03:10.171Z,21.039124
2022-08-01T10:06:31.779Z,20.948486
2022-08-01T10:09:57.093Z,20.656433
2022-08-01T10:13:22.427Z,20.233459
2022-08-01T10:16:53.065Z,19.880981
2022-08-01T10:20:21.741Z,19.73999
2022-08-01T10:23:40.345Z,19.588928
2022-08-01T10:27:05.745Z,19.3573
2022-08-01T10:30:29.226Z,19.226379
2022-08-01T10:33:54.557Z,19.155884
2022-08-01T10:37:19.872Z,19.125671
2022-08-01T10:40:45.194Z,19.125671
2022-08-01T10:44:10.506Z,19.125671
2022-08-01T10:47:49.653Z,19.125671
2022-08-01T10:51:01.190Z,19.186096
2022-08-01T10:54:26.485Z,19.327087
2022-08-01T10:57:52.808Z,19.387512
2022-08-01T11:01:17.229Z,19.458008
2022-08-01T11:04:42.667Z,19.458008
2022-08-01T11:08:07.803Z,19.498291
2022-08-01T11:11:35.162Z,19.498291
2022-08-01T11:14:58.479Z,19.458008
2022-08-01T11:18:27.345Z,19.478149
2022-08-01T11:21:58.421Z,19.468079
2022-08-01T11:25:14.478Z,19.478149
2022-08-01T11:28:40.547Z,19.538574
2022-08-01T11:32:05.102Z,19.60907
2022-08-01T11:35:30.467Z,19.729919
2022-08-01T11:38:55.748Z,19.880981
2022-08-01T11:42:21.196Z,20.032043
2022-08-01T11:45:46.411Z,20.132751
2022-08-01T11:49:11.822Z,20.233459
2022-08-01T11:52:39.959Z,20.324097
2022-08-01T11:56:06.578Z,20.465088
2022-08-01T11:59:33.956Z,20.545654
2022-08-01T12:02:58.891Z,20.61615
2022-08-01T12:06:22.556Z,20.686646
2022-08-01T12:09:47.880Z,20.716858
2022-08-01T12:13:13.189Z,20.978699
2022-08-01T12:16:38.515Z,21.089478
2022-08-01T12:20:03.849Z,21.472168
2022-08-01T12:23:29.187Z,21.804504
2022-08-01T12:26:54.495Z,22.116699
2022-08-01T12:30:19.840Z,22.237549
2022-08-01T12:33:45.210Z,22.237549
2022-08-01T12:37:10.901Z,22.177124
2022-08-01T12:40:35.876Z,22.207336
2022-08-01T12:44:01.209Z,22.398682
2022-08-01T12:47:26.548Z,22.428894
2022-08-01T12:50:51.922Z,22.358398
2022-08-01T12:54:17.264Z,22.328186
2022-08-01T12:57:42.571Z,22.297974
2022-08-01T13:01:08.018Z,22.207336
2022-08-01T13:04:33.288Z,22.066345
2022-08-01T13:07:58.614Z,22.015991
2022-08-01T13:11:24.171Z,21.985779
2022-08-01T13:14:49.710Z,21.975708
2022-08-01T13:18:15.733Z,21.975708
2022-08-01T13:21:52.421Z,21.985779
2022-08-01T13:25:07.700Z,21.985779
2022-08-01T13:28:33.672Z,22.026062
2022-08-01T13:31:59.588Z,22.146912
2022-08-01T13:35:25.530Z,22.348328
2022-08-01T13:38:51.853Z,22.539673
2022-08-01T13:42:19.212Z,22.640381
2022-08-01T13:45:44.669Z,22.569885
2022-08-01T13:49:15.195Z,22.539673
2022-08-01T13:52:36.094Z,22.549744
2022-08-01T13:56:02.101Z,22.610168
2022-08-01T13:59:28.247Z,22.539673
2022-08-01T14:02:54.327Z,22.469177
2022-08-01T14:06:20.251Z,22.388611
2022-08-01T14:09:57.753Z,22.267761
2022-08-01T14:13:12.139Z,22.207336
2022-08-01T14:16:37.984Z,22.096558
2022-08-01T14:20:04.000Z,22.015991
2022-08-01T14:23:29.970Z,21.975708
2022-08-01T14:26:55.854Z,21.895142
2022-08-01T15:05:16.634Z,22.207336
2022-08-01T15:08:42.053Z,22.207336
2022-08-01T15:12:07.707Z,22.237549
2022-08-01T15:15:32.745Z,22.277832
2022-08-01T15:18:58.057Z,22.388611
2022-08-01T15:22:23.391Z,22.459106
2022-08-01T15:25:48.733Z,22.539673
2022-08-01T15:29:14.079Z,22.579956
2022-08-01T15:32:39.403Z,22.620239
2022-08-01T15:36:04.714Z,22.640381
2022-08-01T15:39:30.100Z,22.75116
2022-08-01T15:42:55.419Z,22.791443
2022-08-01T15:46:20.726Z,22.771301
2022-08-01T15:49:46.036Z,22.791443
2022-08-01T15:53:11.344Z,22.801514
2022-08-01T15:56:36.707Z,22.771301
2022-08-01T16:00:02.023Z,22.731018
2022-08-01T16:03:27.357Z,22.670593
2022-08-01T16:06:52.705Z,22.610168
2022-08-01T16:10:18.017Z,22.539673
2022-08-01T16:13:43.377Z,22.489319
2022-08-01T16:17:08.779Z,22.428894
2022-08-01T16:20:34.127Z,22.449036
2022-08-01T16:23:59.512Z,22.489319
2022-08-01T16:27:27.219Z,22.519531
2022-08-01T16:30:54.376Z,22.489319
2022-08-01T16:34:15.585Z,22.489319
2022-08-01T16:37:40.934Z,22.428894
2022-08-01T16:41:06.284Z,22.449036
2022-08-01T16:44:34.044Z,22.358398
2022-08-01T16:47:57.138Z,22.348328
2022-08-01T16:51:22.508Z,22.277832
2022-08-01T16:54:47.934Z,22.237549
2022-08-01T16:58:13.315Z,22.267761
2022-08-01T17:01:53.629Z,22.328186
2022-08-01T17:05:07.165Z,22.388611
2022-08-01T17:08:29.312Z,22.398682
2022-08-01T17:11:55.170Z,22.398682
2022-08-01T17:15:20.514Z,22.368469
2022-08-01T17:18:45.804Z,22.328186
2022-08-01T17:22:11.134Z,22.277832
2022-08-01T17:25:36.455Z,22.207336
2022-08-01T17:29:01.800Z,22.167053
2022-08-01T17:32:27.127Z,22.146912
2022-08-01T17:35:52.469Z,22.086487
2022-08-01T17:39:20.680Z,22.066345
2022-08-01T17:42:43.539Z,22.046204
2022-08-01T17:46:08.862Z,22.015991
2022-08-01T17:49:53.646Z,21.99585
2022-08-01T17:52:59.595Z,21.935425
2022-08-01T17:56:25.013Z,21.935425
2022-08-01T17:59:50.433Z,21.875
2022-08-01T18:03:18.227Z,21.864929
2022-08-01T18:06:41.096Z,21.794434
2022-08-01T18:10:06.406Z,21.774292
2022-08-01T18:13:31.730Z,21.693726
2022-08-01T18:16:57.048Z,21.673584
2022-08-01T18:20:22.373Z,21.613159
2022-08-01T18:23:51.530Z,21.582947
2022-08-01T18:27:13.202Z,21.50238
2022-08-01T18:30:38.311Z,21.462097
2022-08-01T18:34:03.632Z,21.401672
2022-08-01T18:37:30.311Z,21.37146
2022-08-01T18:40:54.266Z,21.311035
2022-08-01T18:44:19.557Z,21.280823
2022-08-01T18:47:44.889Z,21.24054
2022-08-01T18:51:11.638Z,21.170044
2022-08-01T18:54:35.519Z,21.089478
2022-08-01T18:58:00.859Z,21.039124
2022-08-01T19:01:26.243Z,20.978699
2022-08-01T19:04:51.480Z,20.948486
2022-08-01T19:08:16.766Z,20.86792
2022-08-01T19:11:42.084Z,20.837708
2022-08-01T19:15:07.405Z,20.767212
2022-08-01T19:18:32.701Z,20.737
2022-08-01T19:21:58.045Z,20.686646
2022-08-01T19:25:23.366Z,20.636292
2022-08-01T19:28:48.680Z,20.606079
2022-08-01T19:32:14.014Z,20.606079
2022-08-01T19:35:39.351Z,20.585938
2022-08-01T19:39:04.665Z,20.545654
2022-08-01T19:42:29.991Z,20.535583
2022-08-01T19:45:55.313Z,20.505371
2022-08-01T19:49:20.745Z,20.505371
2022-08-01T19:52:46.032Z,20.505371
2022-08-01T19:56:11.348Z,20.465088
2022-08-01T19:59:36.628Z,20.434875
2022-08-01T20:03:02.015Z,20.354309
2022-08-01T20:06:27.312Z,20.24353
2022-08-01T20:09:54.207Z,19.981689
2022-08-01T20:13:17.918Z,19.709778
2022-08-01T20:16:43.245Z,19.478149
2022-08-01T20:20:09.782Z,19.3573
2022-08-01T20:23:35.084Z,19.256592
2022-08-01T20:27:00.402Z,19.155884
2022-08-01T20:30:25.744Z,19.095459
2022-08-01T20:33:51.032Z,19.035034
2022-08-01T20:37:16.356Z,19.004822
2022-08-01T20:40:41.683Z,18.944397
2022-08-01T20:44:06.980Z,18.944397
2022-08-01T20:47:32.329Z,19.004822
2022-08-01T20:50:57.650Z,19.055176
2022-08-01T20:54:22.959Z,19.10553
2022-08-01T20:57:48.264Z,19.155884
2022-08-01T21:01:13.623Z,19.155884
2022-08-01T21:04:38.885Z,19.155884
2022-08-01T21:08:04.192Z,19.186096
2022-08-01T21:11:29.511Z,19.256592
2022-08-01T21:14:54.825Z,19.327087
2022-08-01T21:18:20.122Z,19.407654
2022-08-01T21:21:45.443Z,19.427795
2022-08-01T21:25:10.735Z,19.478149
2022-08-01T21:28:36.026Z,19.508362
2022-08-01T21:32:01.351Z,19.558716
2022-08-01T21:35:26.649Z,19.588928
2022-08-01T21:38:51.975Z,19.588928
2022-08-01T21:42:19.100Z,19.60907
2022-08-01T21:45:57.446Z,19.558716
2022-08-01T21:49:07.936Z,19.558716
2022-08-01T21:52:33.196Z,19.498291
2022-08-01T21:55:58.571Z,19.427795
2022-08-01T21:59:23.829Z,19.437866
2022-08-01T22:02:53.500Z,19.387512
2022-08-01T22:06:14.438Z,19.327087
2022-08-01T22:09:39.753Z,19.256592
2022-08-01T22:13:05.055Z,19.226379
2022-08-01T22:16:30.382Z,19.135742
2022-08-01T22:19:55.695Z,19.024963
2022-08-01T22:23:20.996Z,18.883972
2022-08-01T22:26:46.309Z,18.753052
2022-08-01T22:30:11.629Z,18.722839
2022-08-01T22:33:36.942Z,18.692627
2022-08-01T22:37:02.255Z,18.632202
2022-08-01T22:40:27.575Z,18.60199
2022-08-01T22:43:52.902Z,18.541565
2022-08-01T22:47:18.208Z,18.501282
2022-08-01T22:50:43.518Z,18.450928
2022-08-01T22:54:08.815Z,18.35022
2022-08-01T22:57:34.134Z,18.390503
2022-08-01T23:00:59.456Z,18.440857
2022-08-01T23:04:29.518Z,18.420715
2022-08-01T23:07:50.076Z,18.511353
2022-08-01T23:11:15.387Z,18.511353
2022-08-01T23:14:40.694Z,18.501282
2022-08-01T23:18:05.993Z,18.471069
2022-08-01T23:21:31.290Z,18.440857
2022-08-01T23:25:03.782Z,18.360291
2022-08-01T23:28:21.928Z,18.299866
2022-08-01T23:31:57.366Z,18.299866
2022-08-01T23:35:12.551Z,18.289795
2022-08-01T23:38:37.884Z,18.299866
2022-08-01T23:42:06.949Z,18.330078
2022-08-01T23:45:28.489Z,18.370361
2022-08-01T23:48:53.856Z,18.410645
2022-08-01T23:52:20.499Z,18.450928
2022-08-01T23:55:44.559Z,18.471069
2022-08-01T23:59:09.728Z,18.450928
